Tiempo atmosférico en la estación meteorológica de Pedrosa Del Príncipe, Burgos (771 m.)



Fecha
DESCASC
Temp. máxima en grados centígrados (hora)
DESCASC
Temp. mínima en grados centígrados (hora)
DESCASC
Temp. media en grados centígrados
DESCASC
Racha de viento máxima en m/sg (hora)
DESCASC
Velocidad máxima media en intervalos de 10 minutos(hora)
DESCASC
Precipitaciones diarias en mm
DESCASC
Precipitaciones de 00:00 a 06:00 en mm
DESCASC
Precipitaciones de 06:00 a 12:00 en mm
DESCASC
Precipitaciones de 12:00 a 18:00 en mm
DESCASC
Precipitaciones de 18:00 a 24:00 en mm
DESCASC
20-09-2018 30.4 (16:40) 11.3 (06:20) 20.8 11.39 (16:30) 5.28 (17:10) 0 0 0 0 0
19-09-2018 29.9 (17:10) 11.1 (08:50) 20.5 5.83 (16:30) 2.5 (16:20) 0 0 0 0 0
18-09-2018 29.6 (16:20) 15.2 (08:20) 22.4 8.89 (15:40) 5.56 (01:20) 0 0 0 0 0
17-09-2018 30.5 (16:50) 11.5 (07:50) 21 11.39 (18:00) 6.39 (18:10) 0.2 0 0 0 0.2
16-09-2018 31 (16:10) 12.8 (00:00) 21.9 7.5 (14:50) 3.89 (16:20) 0 0 0 0 0
15-09-2018 30.6 (16:00) 12.5 (00:00) 21.6 8.33 (00:10) 3.89 (00:10) 0 0 0 0 0
14-09-2018 29.9 (16:40) 12.3 (00:00) 21.1 9.72 (21:40) 5.83 (23:20) 0 0 0 0 0
13-09-2018 29 (17:00) 12.6 (00:00) 20.8 7.5 (09:50) 3.89 (10:50) 0 0 0 0 0
12-09-2018 30 (17:10) 10.1 (00:00) 20.1 6.94 (16:10) 3.89 (17:50) 0 0 0 0 0
11-09-2018 30.3 (17:00) 11.9 (00:00) 21.1 16.39 (17:50) 10 (18:00) 0 0 0 0 0
10-09-2018 27.5 (17:10) 11.6 (00:00) 19.6 8.33 (19:40) 5 (19:40) 0 0 0 0 0
09-09-2018 25.8 (15:50) 14.6 (00:00) 20.2 9.17 (16:30) 5.56 (16:40) 0.8 0 0.8 0 0
08-09-2018 27.4 (14:30) 11.3 (00:00) 19.3 10 (16:30) 5.56 (16:30) 0 0 0 0 0
07-09-2018 24.6 (17:20) 9.7 (00:00) 17.2 9.17 (14:20) 5 (12:00) 0 0 0 0 0
06-09-2018 23.5 (14:50) 12.6 (00:00) 18.1 11.39 (19:10) 6.11 (14:40) 0 0 0 0 0
05-09-2018 24.4 (16:30) 13.1 (00:00) 18.8 9.44 (20:00) 5.83 (20:30) 0 0 0 0 0
04-09-2018 27.6 (16:20) 11.4 (00:00) 19.5 10.83 (18:00) 6.67 (18:00) 1.8 1.8 0 0 0
03-09-2018 28.7 (16:20) 15.2 (00:00) 22 13.06 (22:20) 7.78 (21:50) 2 0 0.4 0 1.6
02-09-2018 34.1 (17:20) 10.8 (00:00) 22.4 8.33 (20:40) 4.17 (20:50) 0 0 0 0 0
01-09-2018 30.8 (16:20) 11.8 (00:00) 21.3 7.22 (10:30) 3.61 (10:20) 0 0 0 0 0
31-08-2018 28.4 (16:10) 10.7 (00:00) 19.5 10 (17:10) 5 (20:10) 0 0 0 0 0
30-08-2018 29.4 (17:40) 11.5 (00:00) 20.4 10.28 (20:50) 6.11 (20:50) 0 0 0 0 0
29-08-2018 27.4 (14:40) 12 (00:00) 19.7 11.11 (15:40) 6.39 (18:50) 0 0 0 0 0
28-08-2018 31.8 (16:10) 15.3 (00:00) 23.5 11.11 (14:30) 6.94 (19:30) 0 0 0 0 0
27-08-2018 33.7 (18:30) 12.5 (00:00) 23.1 5.83 (16:40) 3.06 (01:10) 0 0 0 0 0
26-08-2018 29.5 (17:20) 8.7 (00:00) 19.1 7.78 (16:10) 4.17 (02:40) 0 0 0 0 0
25-08-2018 24.3 (15:30) 10.6 (00:00) 17.4 10.28 (00:10) 5.28 (19:10) 0 0 0 0 0
24-08-2018 26.4 (17:10) 11.4 (00:00) 18.9 10.28 (19:50) 6.11 (19:10) 0 0 0 0 0
23-08-2018 28.9 (16:30) 13.9 (00:00) 21.4 9.44 (19:30) 6.11 (19:30) 0 0 0 0 0

Gráficas

Temp. máximas Temp. mínimas Temp. medias Precipitaciones Rachas de viento máximas Velocidades máximas media en intervalos de 10 minutos

Datos horarios

Fecha y hora oficial Temperatura (ºC) Velocidad del viento (km/h) Dirección del viento Racha (km/h) Dirección de racha Precipitación (mm) Presión (hPa) Tendencia (hPa) Humedad (%)
2018-09-21 23:00:00 16.9 8 Nordeste 17 Nordeste 0 -- -- 74
2018-09-21 22:00:00 18.4 7 Este 18 Este 0 -- -- 64
2018-09-21 21:00:00 20.1 7 Nordeste 15 Nordeste 0 -- -- 50
2018-09-21 20:00:00 23.3 0 Calma 9 Noroeste 0 -- -- 45
2018-09-21 19:00:00 26 4 Noroeste 12 Noroeste 0 -- -- 33
2018-09-21 18:00:00 27.2 5 Oeste 20 Noroeste 0 -- -- 28
2018-09-21 17:00:00 27.2 7 Oeste 17 Oeste 0 -- -- 30
2018-09-21 16:00:00 26.6 5 Sudeste 15 Oeste 0 -- -- 32
2018-09-21 15:00:00 25.5 7 Oeste 19 Sur 0 -- -- 35
2018-09-21 14:00:00 25.2 6 Oeste 12 Sudoeste 0 -- -- 35
2018-09-21 13:00:00 23 6 Sur 13 Sudoeste 0 -- -- 41
2018-09-21 12:00:00 20.6 4 Sudoeste 12 Oeste 0 -- -- 45
2018-09-21 11:00:00 19.6 9 Noroeste 19 Oeste 0 -- -- 52
2018-09-21 10:00:00 17.7 8 Oeste 13 Oeste 0 -- -- 57
2018-09-21 09:00:00 14.3 4 Oeste 9 Sudoeste 0 -- -- 68
2018-09-21 08:00:00 13.5 6 Sudoeste 13 Sudoeste 0 -- -- 65
2018-09-21 07:00:00 11.6 5 Oeste 9 Oeste 0 -- -- 70
2018-09-21 06:00:00 12.1 3 Oeste 7 Sur 0 -- -- 72
2018-09-21 05:00:00 13.3 3 Oeste 5 Oeste 0 -- -- 66
2018-09-21 04:00:00 13.5 3 Oeste 8 Sudoeste 0 -- -- 66
2018-09-21 03:00:00 13.6 2 Sudoeste 5 Sudoeste 0 -- -- 66
2018-09-21 02:00:00 14.4 3 Oeste 6 Noroeste 0 -- -- 66
2018-09-21 01:00:00 15 3 Sudoeste 5 Sudoeste 0 -- -- 70
2018-09-21 00:00:00 15.7 0 Calma 5 Sudeste 0 -- -- 62
2018-09-20 23:00:00 16.8 3 Sur 4 Sudoeste 0 -- -- 61
2018-09-20 22:00:00 18.7 0 Calma 3 Norte 0 -- -- 63
2018-09-20 21:00:00 22 0 Calma 10 Oeste 0 -- -- 47
2018-09-20 20:00:00 26 6 Oeste 21 Oeste 0 -- -- 35
2018-09-20 19:00:00 28.8 13 Oeste 30 Oeste 0 -- -- 31
2018-09-20 18:00:00 29.7 13 Oeste 33 Oeste 0 -- -- 30
2018-09-20 17:00:00 30.3 13 Oeste 41 Sudoeste 0 -- -- 29
2018-09-20 16:00:00 30 14 Oeste 30 Noroeste 0 -- -- 31
2018-09-20 15:00:00 29.6 17 Oeste 29 Oeste 0 -- -- 31
2018-09-20 14:00:00 28.7 11 Oeste 23 Oeste 0 -- -- 33
2018-09-20 13:00:00 26 5 Sudoeste 12 Oeste 0 -- -- 45
2018-09-20 12:00:00 23.6 8 Sudoeste 13 Sudoeste 0 -- -- 50
2018-09-20 11:00:00 20.1 6 Sudoeste 10 Oeste 0 -- -- 65
2018-09-20 10:00:00 15.5 4 Sudoeste 6 Sudoeste 0 -- -- 88
2018-09-20 09:00:00 12.8 4 Sur 12 Nordeste 0 -- -- 92
2018-09-20 08:00:00 12 2 Este 8 Este 0 -- -- 93
2018-09-20 07:00:00 12 3 Este 8 Nordeste 0 -- -- 93
2018-09-20 06:00:00 11.5 2 Nordeste 4 Nordeste 0 -- -- 89
2018-09-20 05:00:00 12.6 2 Este 3 Nordeste 0 -- -- 89
2018-09-20 04:00:00 13.8 3 Oeste 7 Este 0 -- -- 86
2018-09-20 03:00:00 16 3 Nordeste 10 Nordeste 0 -- -- 82
2018-09-20 02:00:00 16.9 5 Este 13 Nordeste 0 -- -- 81
2018-09-20 01:00:00 17 7 Este 12 Este 0 -- -- 74
2018-09-20 00:00:00 16.9 5 Este 11 Nordeste 0 -- -- 69
2018-09-19 23:00:00 16.2 4 Nordeste 11 Noroeste 0 -- -- 65
2018-09-19 22:00:00 18.1 3 Este 6 Este 0 -- -- 62
2018-09-19 21:00:00 21.6 2 Sur 6 Sudeste 0 -- -- 52
2018-09-19 20:00:00 26.8 3 Noroeste 9 Noroeste 0 -- -- 41
2018-09-19 19:00:00 29 5 Noroeste 18 Noroeste 0 -- -- 33
2018-09-19 18:00:00 29.4 9 Noroeste 17 Noroeste 0 -- -- 33
2018-09-19 17:00:00 29.8 7 Noroeste 21 Oeste 0 -- -- 32
2018-09-19 16:00:00 28.5 3 Nordeste 20 Oeste 0 -- -- 35
2018-09-19 15:00:00 28.9 6 Sur 17 Oeste 0 -- -- 36
2018-09-19 14:00:00 28.2 5 Sudoeste 14 Sudoeste 0 -- -- 38
2018-09-19 13:00:00 26.4 6 Oeste 14 Oeste 0 -- -- 39
2018-09-19 12:00:00 23.6 4 Sudoeste 7 Sudoeste 0 -- -- 55
2018-09-19 11:00:00 20 3 Oeste 7 Oeste 0 -- -- 68
2018-09-19 10:00:00 15.6 2 Nordeste 6 Nordeste 0 -- -- 84
2018-09-19 09:00:00 11.2 0 Calma 3 Sudoeste 0 -- -- 91
2018-09-19 08:00:00 11.4 0 Calma 4 Sudoeste 0 -- -- 88
2018-09-19 07:00:00 14.6 3 Sudoeste 14 Sudeste 0 -- -- 79
2018-09-19 06:00:00 14.9 6 Sur 10 Sudeste 0 -- -- 82
2018-09-19 05:00:00 13.6 5 Este 9 Nordeste 0 -- -- 93
2018-09-19 04:00:00 12.9 3 Nordeste 6 Sudeste 0 -- -- 86
2018-09-19 03:00:00 14.5 2 Sur 6 Sudeste 0 -- -- 86
2018-09-19 02:00:00 15.9 2 Sudeste 12 Este 0 -- -- 85
2018-09-19 01:00:00 16.2 5 Este 14 Este 0 -- -- 84
2018-09-19 00:00:00 16.9 5 Nordeste 17 Este 0 -- -- 81
2018-09-18 23:00:00 17.6 2 Sudeste 10 Este 0 -- -- 71
2018-09-18 22:00:00 19.3 6 Nordeste 17 Este 0 -- -- 65
2018-09-18 21:00:00 20.5 2 Este 7 Sur 0 -- -- 49
2018-09-18 20:00:00 26.2 2 Oeste 12 Noroeste 0 -- -- 44
2018-09-18 19:00:00 27.5 9 Oeste 24 Oeste 0 -- -- 32
2018-09-18 18:00:00 29 14 Oeste 26 Oeste 0 -- -- 31
2018-09-18 17:00:00 29.2 11 Oeste 27 Oeste 0 -- -- 32
2018-09-18 16:00:00 29.2 15 Oeste 32 Noroeste 0 -- -- 32
2018-09-18 15:00:00 28.4 14 Oeste 27 Oeste 0 -- -- 37
2018-09-18 14:00:00 27.7 11 Oeste 24 Oeste 0 -- -- 39
2018-09-18 13:00:00 26 5 Sudoeste 18 Sudoeste 0 -- -- 47
2018-09-18 12:00:00 24.5 5 Sudoeste 10 Este 0 -- -- 52
2018-09-18 11:00:00 21.9 4 Sudoeste 8 Sudoeste 0 -- -- 61
2018-09-18 10:00:00 19.4 3 Sur 9 Sudeste 0 -- -- 71
2018-09-18 09:00:00 16 4 Este 10 Sudeste 0 -- -- 83
2018-09-18 08:00:00 15.5 3 Este 7 Nordeste 0 -- -- 83
2018-09-18 07:00:00 15.5 4 Este 10 Este 0 -- -- 81
2018-09-18 06:00:00 16.2 3 Este 8 Sudeste 0 -- -- 79
2018-09-18 05:00:00 18.3 3 Oeste 15 Sur 0 -- -- 73
2018-09-18 04:00:00 19.2 6 Sur 25 Sudeste 0 -- -- 70
2018-09-18 03:00:00 19.8 15 Sudeste 29 Sur 0 -- -- 66
2018-09-18 02:00:00 20.5 17 Sur 31 Sudeste 0 -- -- 61
2018-09-18 01:00:00 21.2 18 Sudeste 32 Sudeste 0 -- -- 57
2018-09-18 00:00:00 21.7 15 Sur 29 Sur 0 -- -- 54
2018-09-17 23:00:00 21.1 6 Sudeste 18 Este 0 -- -- 56
2018-09-17 22:00:00 19.7 3 Este 12 Este 0 -- -- 59
2018-09-17 21:00:00 21.4 4 Oeste 18 Sudeste 0 -- -- 54
2018-09-17 20:00:00 23.7 9 Sur 19 Sur 0 -- -- 51
2018-09-17 19:00:00 23.9 15 Sur 37 Sur 0.2 -- -- 48
2018-09-17 18:00:00 27.1 18 Sur 41 Sudeste 0 -- -- 36
2018-09-17 17:00:00 30 5 Oeste 22 Oeste 0 -- -- 31
2018-09-17 16:00:00 29.6 6 Oeste 30 Oeste 0 -- -- 30
2018-09-17 15:00:00 30.1 12 Oeste 23 Oeste 0 -- -- 31
2018-09-17 14:00:00 29.4 9 Sudoeste 20 Sudoeste 0 -- -- 34
2018-09-17 13:00:00 27.6 8 Sudoeste 19 Sudoeste 0 -- -- 39
2018-09-17 12:00:00 25.7 13 Sudoeste 20 Oeste 0 -- -- 42
2018-09-17 11:00:00 22.8 8 Sur 17 Sur 0 -- -- 48
2018-09-17 10:00:00 18.8 3 Sur 9 Sudoeste 0 -- -- 63
2018-09-17 09:00:00 15.7 3 Sudeste 10 Sudoeste 0 -- -- 72
2018-09-17 08:00:00 11.5 2 Sur 7 Sudoeste 0 -- -- 91
2018-09-17 07:00:00 12 4 Sudoeste 8 Sudeste 0 -- -- 91
2018-09-17 06:00:00 12.2 3 Nordeste 6 Nordeste 0 -- -- 92
2018-09-17 05:00:00 12.8 2 Norte 5 Sur 0 -- -- 86
2018-09-17 04:00:00 14.1 3 Sudoeste 6 Oeste 0 -- -- 86
2018-09-17 03:00:00 15.1 0 Calma 10 Este 0 -- -- 83
2018-09-17 02:00:00 17 4 Este 10 Este 0 -- -- 78
2018-09-17 01:00:00 18.1 7 Este 15 Este 0 -- -- 75
2018-09-17 00:00:00 19.8 4 Nordeste 19 Nordeste 0 -- -- 70
2018-09-16 23:00:00 20.4 10 Nordeste 16 Nordeste 0 -- -- 66
2018-09-16 22:00:00 21.4 9 Nordeste 23 Nordeste 0 -- -- 60
2018-09-16 21:00:00 24.1 2 Sur 4 Norte 0 -- -- 43
2018-09-16 20:00:00 27.4 3 Oeste 14 Oeste 0 -- -- 34
2018-09-16 19:00:00 30.1 8 Oeste 19 Oeste 0 -- -- 29
2018-09-16 18:00:00 30.1 10 Oeste 23 Noroeste 0 -- -- 30
2018-09-16 17:00:00 30.1 10 Oeste 23 Oeste 0 -- -- 31
2018-09-16 16:00:00 30.8 11 Oeste 25 Oeste 0 -- -- 31
2018-09-16 15:00:00 29.9 12 Oeste 27 Oeste 0 -- -- 33
2018-09-16 14:00:00 28.8 6 Oeste 18 Oeste 0 -- -- 38
2018-09-16 13:00:00 27.2 10 Oeste 23 Sudoeste 0 -- -- 39
2018-09-16 12:00:00 24.5 9 Sur 15 Sur 0 -- -- 48
2018-09-16 11:00:00 21.7 9 Sur 17 Sur 0 -- -- 55
2018-09-16 10:00:00 17.9 2 Oeste 7 Sur 0 -- -- 69
2018-09-16 09:00:00 14.9 3 Oeste 15 Sudeste 0 -- -- 78
2018-09-16 08:00:00 16.1 10 Sur 18 Sur 0 -- -- 72
2018-09-16 07:00:00 13.7 4 Este 9 Este 0 -- -- 81
2018-09-16 06:00:00 13.2 5 Nordeste 14 Nordeste 0 -- -- 81
2018-09-16 05:00:00 13.8 5 Sudoeste 8 Sudoeste 0 -- -- 79
2018-09-16 04:00:00 15.8 5 Sudoeste 9 Sudoeste 0 -- -- 72
2018-09-16 03:00:00 16.2 0 Calma 10 Nordeste 0 -- -- 71
2018-09-16 02:00:00 16.3 7 Nordeste 9 Nordeste 0 -- -- 69
2018-09-16 01:00:00 17.5 4 Este 11 Este 0 -- -- 64
2018-09-16 00:00:00 19 5 Nordeste 19 Nordeste 0 -- -- 61
2018-09-15 23:00:00 21 14 Nordeste 24 Este 0 -- -- 51
2018-09-15 22:00:00 21.2 9 Nordeste 19 Este 0 -- -- 48
2018-09-15 21:00:00 23 6 Nordeste 17 Este 0 -- -- 44
2018-09-15 20:00:00 27.5 5 Noroeste 15 Noroeste 0 -- -- 34
2018-09-15 19:00:00 30 10 Noroeste 18 Noroeste 0 -- -- 29
2018-09-15 18:00:00 30.2 9 Norte 17 Norte 0 -- -- 29
2018-09-15 17:00:00 30 9 Nordeste 21 Nordeste 0 -- -- 30
2018-09-15 16:00:00 30.6 4 Sudeste 18 Este 0 -- -- 30
2018-09-15 15:00:00 29.5 5 Sudeste 14 Nordeste 0 -- -- 33
2018-09-15 14:00:00 27.8 6 Nordeste 16 Nordeste 0 -- -- 42
2018-09-15 13:00:00 25.8 8 Este 17 Este 0 -- -- 46
2018-09-15 12:00:00 22.6 8 Nordeste 18 Este 0 -- -- 53
2018-09-15 11:00:00 19.6 9 Nordeste 19 Este 0 -- -- 62
2018-09-15 10:00:00 16.6 11 Nordeste 19 Nordeste 0 -- -- 73
2018-09-15 09:00:00 13.4 8 Nordeste 15 Nordeste 0 -- -- 85
2018-09-15 08:00:00 12.6 5 Este 20 Nordeste 0 -- -- 87
2018-09-15 07:00:00 13.3 13 Nordeste 22 Este 0 -- -- 86
2018-09-15 06:00:00 13.6 10 Este 17 Nordeste 0 -- -- 87
2018-09-15 05:00:00 13.9 10 Nordeste 23 Nordeste 0 -- -- 87
2018-09-15 04:00:00 14.4 10 Nordeste 21 Nordeste 0 -- -- 86
2018-09-15 03:00:00 15.1 12 Nordeste 26 Nordeste 0 -- -- 85
2018-09-15 02:00:00 15.2 13 Nordeste 23 Este 0 -- -- 84
2018-09-15 01:00:00 15.8 10 Nordeste 30 Este 0 -- -- 84
2018-09-15 00:00:00 16.7 17 Nordeste 35 Nordeste 0 -- -- 81
2018-09-14 23:00:00 18 19 Nordeste 35 Nordeste 0 -- -- 75
2018-09-14 22:00:00 20.4 15 Este 35 Este 0 -- -- 64
2018-09-14 21:00:00 23.3 17 Este 28 Este 0 -- -- 53
2018-09-14 20:00:00 26.5 7 Nordeste 18 Nordeste 0 -- -- 37
2018-09-14 19:00:00 28.9 5 Norte 18 Norte 0 -- -- 31
2018-09-14 18:00:00 29.4 4 Noroeste 18 Norte 0 -- -- 32
2018-09-14 17:00:00 29.7 6 Oeste 20 Noroeste 0 -- -- 31
2018-09-14 16:00:00 29.4 6 Oeste 17 Noroeste 0 -- -- 33
2018-09-14 15:00:00 28.1 6 Norte 17 Norte 0 -- -- 38
2018-09-14 14:00:00 26.5 5 Nordeste 15 Este 0 -- -- 41
2018-09-14 13:00:00 24.3 5 Nordeste 16 Nordeste 0 -- -- 48
2018-09-14 12:00:00 21.6 10 Nordeste 22 Este 0 -- -- 55
2018-09-14 11:00:00 18.9 13 Este 24 Este 0 -- -- 66
2018-09-14 10:00:00 16.1 12 Nordeste 22 Nordeste 0 -- -- 77
2018-09-14 09:00:00 13 11 Nordeste 24 Nordeste 0 -- -- 90
2018-09-14 08:00:00 12.4 10 Este 24 Este 0 -- -- 89
2018-09-14 07:00:00 12.6 10 Nordeste 24 Este 0 -- -- 88
2018-09-14 06:00:00 13.1 13 Este 21 Este 0 -- -- 87
2018-09-14 05:00:00 13.4 9 Este 21 Este 0 -- -- 87
2018-09-14 04:00:00 14 13 Este 30 Este 0 -- -- 87
2018-09-14 03:00:00 13.9 10 Nordeste 19 Este 0 -- -- 87
2018-09-14 02:00:00 14.5 9 Nordeste 24 Este 0 -- -- 83
2018-09-14 01:00:00 15.4 12 Nordeste 27 Nordeste 0 -- -- 79
2018-09-14 00:00:00 16.4 12 Nordeste 23 Nordeste 0 -- -- 73
2018-09-13 23:00:00 17.5 9 Nordeste 17 Nordeste 0 -- -- 68
2018-09-13 22:00:00 19.3 9 Nordeste 20 Nordeste 0 -- -- 59
2018-09-13 21:00:00 22.6 11 Este 18 Este 0 -- -- 46
2018-09-13 20:00:00 25.6 9 Nordeste 15 Este 0 -- -- 43
2018-09-13 19:00:00 27.8 7 Nordeste 18 Norte 0 -- -- 33
2018-09-13 18:00:00 28.4 6 Nordeste 20 Este 0 -- -- 34
2018-09-13 17:00:00 29 6 Sur 19 Norte 0 -- -- 35
2018-09-13 16:00:00 28.6 4 Sur 18 Noroeste 0 -- -- 36
2018-09-13 15:00:00 26.8 4 Este 18 Este 0 -- -- 42
2018-09-13 14:00:00 25.5 9 Nordeste 19 Nordeste 0 -- -- 45
2018-09-13 13:00:00 24 8 Nordeste 21 Nordeste 0 -- -- 50
2018-09-13 12:00:00 22.1 10 Nordeste 24 Este 0 -- -- 56
2018-09-13 11:00:00 19.7 13 Nordeste 26 Este 0 -- -- 66
2018-09-13 10:00:00 17.1 13 Este 27 Este 0 -- -- 78
2018-09-13 09:00:00 13.6 7 Nordeste 13 Este 0 -- -- 93
2018-09-13 08:00:00 13 4 Nordeste 10 Este 0 -- -- 92
2018-09-13 07:00:00 12.6 4 Nordeste 9 Este 0 -- -- 91
2018-09-13 06:00:00 13.5 4 Nordeste 8 Nordeste 0 -- -- 90
2018-09-13 05:00:00 14.4 4 Este 15 Este 0 -- -- 89
2018-09-13 04:00:00 15.1 11 Nordeste 22 Nordeste 0 -- -- 89
2018-09-13 03:00:00 15.4 11 Nordeste 19 Nordeste 0 -- -- 88
2018-09-13 02:00:00 16 3 Este 17 Nordeste 0 -- -- 84
2018-09-13 01:00:00 16.8 9 Nordeste 21 Nordeste 0 -- -- 83
2018-09-13 00:00:00 17.9 8 Nordeste 19 Este 0 -- -- 76
2018-09-12 23:00:00 19.6 12 Nordeste 20 Nordeste 0 -- -- 68
2018-09-12 22:00:00 21 8 Este 16 Nordeste 0 -- -- 52
2018-09-12 21:00:00 23.7 12 Nordeste 25 Nordeste 0 -- -- 45
2018-09-12 20:00:00 27.9 6 Oeste 18 Noroeste 0 -- -- 35
2018-09-12 19:00:00 29.6 10 Noroeste 24 Oeste 0 -- -- 30
2018-09-12 18:00:00 29.9 7 Oeste 25 Oeste 0 -- -- 31
2018-09-12 17:00:00 29.6 9 Sudoeste 25 Oeste 0 -- -- 34
2018-09-12 16:00:00 29.8 6 Noroeste 21 Oeste 0 -- -- 33
2018-09-12 15:00:00 29.4 10 Noroeste 19 Noroeste 0 -- -- 36
2018-09-12 14:00:00 27.6 4 Noroeste 14 Oeste 0 -- -- 42
2018-09-12 13:00:00 26 8 Oeste 17 Oeste 0 -- -- 49
2018-09-12 12:00:00 24.2 8 Sudoeste 18 Oeste 0 -- -- 53
2018-09-12 11:00:00 21.6 4 Sur 15 Sudeste 0 -- -- 61
2018-09-12 10:00:00 16.5 5 Nordeste 12 Nordeste 0 -- -- 79
2018-09-12 09:00:00 11.5 0 Calma 12 Nordeste 0 -- -- 89
2018-09-12 08:00:00 10.1 3 Sudeste 6 Noroeste 0 -- -- 88
2018-09-12 07:00:00 10.6 0 Calma 5 Este 0 -- -- 87
2018-09-12 06:00:00 11.4 0 Calma 4 Sur 0 -- -- 85
2018-09-12 05:00:00 12 0 Calma 6 Sudoeste 0 -- -- 84
2018-09-12 04:00:00 12.3 4 Nordeste 10 Este 0 -- -- 82
2018-09-12 03:00:00 13.5 3 Nordeste 11 Este 0 -- -- 80
2018-09-12 02:00:00 14.4 4 Este 12 Norte 0 -- -- 78
2018-09-12 01:00:00 14.6 8 Norte 10 Norte 0 -- -- 76
2018-09-12 00:00:00 16.2 0 Calma 7 Este 0 -- -- 71
2018-09-11 23:00:00 16.8 5 Nordeste 9 Nordeste 0 -- -- 70
2018-09-11 22:00:00 18.8 3 Noroeste 20 Sudeste 0 -- -- 61
2018-09-11 21:00:00 20.1 4 Sudoeste 33 Sudeste 0 -- -- 53
2018-09-11 20:00:00 21.4 23 Sudeste 43 Sudeste 0 -- -- 51
2018-09-11 19:00:00 21.2 28 Sudeste 51 Sudeste 0 -- -- 56
2018-09-11 18:00:00 24.2 36 Sudeste 59 Este 0 -- -- 50
2018-09-11 17:00:00 30.3 4 Noroeste 14 Este 0 -- -- 27
2018-09-11 16:00:00 29.9 5 Sudoeste 21 Este 0 -- -- 29
2018-09-11 15:00:00 29.3 8 Este 22 Este 0 -- -- 30
2018-09-11 14:00:00 27.6 5 Nordeste 14 Nordeste 0 -- -- 36
2018-09-11 13:00:00 26.7 5 Este 19 Sudeste 0 -- -- 39
2018-09-11 12:00:00 24.5 12 Sudeste 22 Sudeste 0 -- -- 50
2018-09-11 11:00:00 22.2 9 Sur 15 Sur 0 -- -- 60
2018-09-11 10:00:00 17.2 4 Nordeste 8 Nordeste 0 -- -- 76
2018-09-11 09:00:00 12.6 3 Este 5 Este 0 -- -- 91
2018-09-11 08:00:00 12.5 0 Calma 11 Este 0 -- -- 86
2018-09-11 07:00:00 13.6 5 Este 11 Este 0 -- -- 87
2018-09-11 06:00:00 13.9 5 Este 9 Nordeste 0 -- -- 88
2018-09-11 05:00:00 14.8 3 Sudeste 13 Este 0 -- -- 83
2018-09-11 04:00:00 15.4 8 Nordeste 15 Nordeste 0 -- -- 84
2018-09-11 03:00:00 15.1 7 Nordeste 13 Nordeste 0 -- -- 85
2018-09-11 02:00:00 15.6 4 Nordeste 12 Nordeste 0 -- -- 83
2018-09-11 01:00:00 16.3 5 Este 15 Nordeste 0 -- -- 78
2018-09-11 00:00:00 17.1 10 Este 19 Este 0 -- -- 74
2018-09-10 23:00:00 18.1 10 Este 17 Este 0 -- -- 69
2018-09-10 22:00:00 18.4 6 Este 10 Nordeste 0 -- -- 65
2018-09-10 21:00:00 21 5 Este 23 Este 0 -- -- 55
2018-09-10 20:00:00 24.4 13 Este 30 Este 0 -- -- 45
2018-09-10 19:00:00 26.7 9 Nordeste 21 Nordeste 0 -- -- 35
2018-09-10 18:00:00 27.2 9 Norte 21 Nordeste 0 -- -- 35
2018-09-10 17:00:00 27.2 10 Nordeste 21 Nordeste 0 -- -- 38
2018-09-10 16:00:00 26.5 9 Norte 22 Este 0 -- -- 41
2018-09-10 15:00:00 25.8 8 Nordeste 25 Este 0 -- -- 44
2018-09-10 14:00:00 24.2 10 Este 24 Nordeste 0 -- -- 49
2018-09-10 13:00:00 23.2 11 Este 25 Este 0 -- -- 52
2018-09-10 12:00:00 21.5 12 Este 26 Este 0 -- -- 59
2018-09-10 11:00:00 19.8 13 Nordeste 24 Nordeste 0 -- -- 66
2018-09-10 10:00:00 16.7 8 Nordeste 19 Nordeste 0 -- -- 83
2018-09-10 09:00:00 12.6 2 Este 6 Este 0 -- -- 94
2018-09-10 08:00:00 11.8 0 Calma 12 Este 0 -- -- 92
2018-09-10 07:00:00 12.5 6 Este 11 Nordeste 0 -- -- 92
2018-09-10 06:00:00 13.2 5 Este 15 Este 0 -- -- 91
2018-09-10 05:00:00 12.9 2 Nordeste 14 Este 0 -- -- 89
2018-09-10 04:00:00 14.3 5 Este 13 Este 0 -- -- 89
2018-09-10 03:00:00 14.7 7 Este 13 Nordeste 0 -- -- 88
2018-09-10 02:00:00 15.6 7 Nordeste 20 Nordeste 0 -- -- 86
2018-09-10 01:00:00 15.2 6 Este 12 Este 0 -- -- 86
2018-09-10 00:00:00 15.6 8 Este 14 Este 0 -- -- 84
2018-09-09 23:00:00 16.1 6 Este 12 Nordeste 0 -- -- 77
2018-09-09 22:00:00 17.5 6 Nordeste 18 Nordeste 0 -- -- 70
2018-09-09 21:00:00 19.5 10 Nordeste 25 Este 0 -- -- 64
2018-09-09 20:00:00 21.3 11 Nordeste 26 Nordeste 0 -- -- 56
2018-09-09 19:00:00 23.7 12 Nordeste 25 Nordeste 0 -- -- 45
2018-09-09 18:00:00 24.8 13 Nordeste 25 Nordeste 0 -- -- 46
2018-09-09 17:00:00 24.2 17 Nordeste 33 Norte 0 -- -- 47
2018-09-09 16:00:00 25.8 10 Norte 27 Norte 0 -- -- 43
2018-09-09 15:00:00 25.1 6 Sudoeste 11 Sur 0 -- -- 45
2018-09-09 14:00:00 23.2 4 Este 11 Sudoeste 0 -- -- 56
2018-09-09 13:00:00 21.1 4 Noroeste 12 Noroeste 0 -- -- 63
2018-09-09 12:00:00 20 4 Oeste 11 Noroeste 0 -- -- 69
2018-09-09 11:00:00 17.1 3 Noroeste 6 Oeste 0.2 -- -- 81
2018-09-09 10:00:00 16 4 Oeste 8 Oeste 0.4 -- -- 86
2018-09-09 09:00:00 16.1 3 Sudoeste 8 Sur 0.2 -- -- 83
2018-09-09 08:00:00 14.6 0 Calma 7 Sudoeste 0 -- -- 85
2018-09-09 07:00:00 15.5 5 Sudoeste 10 Nordeste 0 -- -- 81
2018-09-09 06:00:00 15.6 5 Nordeste 10 Nordeste 0 -- -- 79
2018-09-09 05:00:00 15.5 2 Oeste 8 Sur 0 -- -- 80
2018-09-09 04:00:00 16.7 4 Este 12 Este 0 -- -- 74
2018-09-09 03:00:00 16.6 6 Este 10 Este 0 -- -- 73
2018-09-09 02:00:00 16.9 4 Noroeste 13 Noroeste 0 -- -- 73
2018-09-09 01:00:00 17.9 4 Sur 6 Oeste 0 -- -- 70
2018-09-09 00:00:00 18.5 3 Sudeste 7 Sudeste 0 -- -- 63
2018-09-08 23:00:00 20.1 6 Sur 10 Sur 0 -- -- 56
2018-09-08 22:00:00 20.5 3 Este 9 Este 0 -- -- 52
2018-09-08 21:00:00 22 6 Este 18 Sudeste 0 -- -- 50
2018-09-08 20:00:00 24.2 11 Sudeste 22 Sudeste 0 -- -- 44
2018-09-08 19:00:00 25 14 Sudeste 23 Sudeste 0 -- -- 43
2018-09-08 18:00:00 26.2 9 Sur 27 Sudeste 0 -- -- 43
2018-09-08 17:00:00 25.7 13 Sudoeste 36 Sudoeste 0 -- -- 46
2018-09-08 16:00:00 26.2 11 Sudoeste 20 Oeste 0 -- -- 39
2018-09-08 15:00:00 26.4 8 Sudoeste 27 Sur 0 -- -- 37
2018-09-08 14:00:00 26.7 7 Oeste 19 Sudeste 0 -- -- 37
2018-09-08 13:00:00 25.3 8 Sudeste 15 Sudeste 0 -- -- 41
2018-09-08 12:00:00 23.7 7 Sudeste 16 Este 0 -- -- 43
2018-09-08 11:00:00 21.1 7 Sur 17 Sudeste 0 -- -- 54
2018-09-08 10:00:00 17.7 3 Este 11 Nordeste 0 -- -- 69
2018-09-08 09:00:00 14.2 7 Nordeste 14 Nordeste 0 -- -- 84
2018-09-08 08:00:00 13.1 9 Sudeste 23 Norte 0 -- -- 86
2018-09-08 07:00:00 12.6 9 Este 17 Nordeste 0 -- -- 87
2018-09-08 06:00:00 11.7 4 Este 9 Este 0 -- -- 90
2018-09-08 05:00:00 12.5 3 Este 11 Sudeste 0 -- -- 84
2018-09-08 04:00:00 13.6 3 Nordeste 13 Nordeste 0 -- -- 83
2018-09-08 03:00:00 13.5 8 Nordeste 17 Nordeste 0 -- -- 84
2018-09-08 02:00:00 14.5 12 Nordeste 28 Este 0 -- -- 80
2018-09-08 01:00:00 15.4 13 Nordeste 32 Nordeste 0 -- -- 76
2018-09-08 00:00:00 15.9 16 Nordeste 26 Este 0 -- -- 75
2018-09-07 23:00:00 15.9 10 Nordeste 27 Nordeste 0 -- -- 73
2018-09-07 22:00:00 17.4 12 Nordeste 22 Nordeste 0 -- -- 66
2018-09-07 21:00:00 19 9 Nordeste 24 Este 0 -- -- 58
2018-09-07 20:00:00 21.4 13 Nordeste 26 Nordeste 0 -- -- 51
2018-09-07 19:00:00 23.6 11 Nordeste 27 Este 0 -- -- 45
2018-09-07 18:00:00 24.4 10 Nordeste 25 Este 0 -- -- 42
2018-09-07 17:00:00 24.3 13 Nordeste 29 Nordeste 0 -- -- 40
2018-09-07 16:00:00 24.2 15 Nordeste 30 Nordeste 0 -- -- 41
2018-09-07 15:00:00 23.1 13 Nordeste 33 Este 0 -- -- 43
2018-09-07 14:00:00 22.3 18 Nordeste 31 Este 0 -- -- 46
2018-09-07 13:00:00 21.3 16 Nordeste 32 Este 0 -- -- 49
2018-09-07 12:00:00 19.7 18 Este 32 Este 0 -- -- 56
2018-09-07 11:00:00 17.8 17 Este 31 Este 0 -- -- 65
2018-09-07 10:00:00 15.2 10 Nordeste 18 Nordeste 0 -- -- 80
2018-09-07 09:00:00 11.6 7 Este 12 Este 0 -- -- 94
2018-09-07 08:00:00 10 4 Nordeste 9 Este 0 -- -- 93
2018-09-07 07:00:00 10.4 7 Este 13 Este 0 -- -- 91
2018-09-07 06:00:00 11 8 Este 14 Este 0 -- -- 91
2018-09-07 05:00:00 11.1 6 Este 15 Este 0 -- -- 91
2018-09-07 04:00:00 11.3 7 Nordeste 12 Nordeste 0 -- -- 90
2018-09-07 03:00:00 11.8 5 Este 12 Nordeste 0 -- -- 88
2018-09-07 02:00:00 12.6 5 Este 19 Nordeste 0 -- -- 85
2018-09-07 01:00:00 13.6 8 Nordeste 31 Nordeste 0 -- -- 82
2018-09-07 00:00:00 13.4 7 Nordeste 24 Este 0 -- -- 83
2018-09-06 23:00:00 14.1 10 Nordeste 23 Nordeste 0 -- -- 81
2018-09-06 22:00:00 15 16 Nordeste 35 Nordeste 0 -- -- 78
2018-09-06 21:00:00 16.4 17 Nordeste 33 Nordeste 0 -- -- 72
2018-09-06 20:00:00 18.8 19 Nordeste 41 Nordeste 0 -- -- 59
2018-09-06 19:00:00 21 21 Nordeste 36 Nordeste 0 -- -- 54
2018-09-06 18:00:00 21.7 18 Nordeste 36 Nordeste 0 -- -- 50
2018-09-06 17:00:00 23.2 17 Nordeste 37 Nordeste 0 -- -- 44
2018-09-06 16:00:00 22.9 21 Nordeste 34 Este 0 -- -- 46
2018-09-06 15:00:00 23.5 17 Nordeste 33 Nordeste 0 -- -- 44
2018-09-06 14:00:00 22.2 15 Nordeste 30 Nordeste 0 -- -- 47
2018-09-06 13:00:00 22 13 Este 28 Este 0 -- -- 49
2018-09-06 12:00:00 20 13 Nordeste 26 Nordeste 0 -- -- 58
2018-09-06 11:00:00 17.7 15 Nordeste 30 Nordeste 0 -- -- 69
2018-09-06 10:00:00 16.1 13 Nordeste 23 Nordeste 0 -- -- 77
2018-09-06 09:00:00 13.3 7 Este 16 Este 0 -- -- 86
2018-09-06 08:00:00 12.6 8 Este 18 Nordeste 0 -- -- 88
2018-09-06 07:00:00 12.9 9 Nordeste 16 Nordeste 0 -- -- 87
2018-09-06 06:00:00 13.9 10 Nordeste 20 Nordeste 0 -- -- 86
2018-09-06 05:00:00 14.3 8 Nordeste 15 Nordeste 0 -- -- 85
2018-09-06 04:00:00 14.2 6 Este 16 Este 0 -- -- 85
2018-09-06 03:00:00 14.4 8 Nordeste 22 Este 0 -- -- 84
2018-09-06 02:00:00 14.1 9 Este 26 Nordeste 0 -- -- 86
2018-09-06 01:00:00 14.4 7 Nordeste 14 Nordeste 0 -- -- 85
2018-09-06 00:00:00 14.8 0 Calma 13 Este 0 -- -- 85
2018-09-05 23:00:00 15.1 5 Este 21 Nordeste 0 -- -- 84
2018-09-05 22:00:00 15.8 13 Nordeste 29 Nordeste 0 -- -- 82
2018-09-05 21:00:00 17.1 15 Nordeste 34 Nordeste 0 -- -- 78
2018-09-05 20:00:00 19.1 19 Nordeste 34 Nordeste 0 -- -- 69
2018-09-05 19:00:00 21.1 14 Nordeste 28 Nordeste 0 -- -- 62
2018-09-05 18:00:00 22.3 13 Nordeste 29 Nordeste 0 -- -- 58
2018-09-05 17:00:00 22.3 14 Nordeste 27 Nordeste 0 -- -- 56
2018-09-05 16:00:00 23.2 6 Norte 28 Nordeste 0 -- -- 51
2018-09-05 15:00:00 23.2 12 Nordeste 29 Norte 0 -- -- 53
2018-09-05 14:00:00 22 14 Norte 30 Noroeste 0 -- -- 56
2018-09-05 13:00:00 21.8 4 Noroeste 14 Este 0 -- -- 58
2018-09-05 12:00:00 21 5 Este 27 Este 0 -- -- 61
2018-09-05 11:00:00 19.2 17 Este 32 Este 0 -- -- 67
2018-09-05 10:00:00 17 15 Este 26 Este 0 -- -- 76
2018-09-05 09:00:00 14.4 10 Nordeste 22 Este 0 -- -- 85
2018-09-05 08:00:00 13.5 11 Nordeste 20 Nordeste 0 -- -- 85
2018-09-05 07:00:00 13.6 11 Nordeste 23 Nordeste 0 -- -- 84
2018-09-05 06:00:00 13.5 10 Nordeste 22 Este 0 -- -- 83
2018-09-05 05:00:00 13.8 8 Nordeste 20 Este 0 -- -- 80
2018-09-05 04:00:00 13.7 11 Nordeste 19 Nordeste 0 -- -- 75
2018-09-05 03:00:00 13.1 8 Nordeste 16 Este 0 -- -- 74
2018-09-05 02:00:00 13.6 6 Nordeste 17 Nordeste 0 -- -- 74
2018-09-05 01:00:00 14.6 10 Nordeste 26 Nordeste 0 -- -- 73
2018-09-05 00:00:00 15.5 14 Nordeste 26 Nordeste 0 -- -- 72
2018-09-04 23:00:00 16.6 10 Nordeste 30 Nordeste 0 -- -- 69
2018-09-04 22:00:00 17.5 19 Nordeste 33 Nordeste 0 -- -- 66
2018-09-04 21:00:00 19.2 14 Nordeste 34 Nordeste 0 -- -- 68
2018-09-04 20:00:00 21.5 22 Nordeste 37 Nordeste 0 -- -- 61
2018-09-04 19:00:00 22.9 21 Nordeste 39 Nordeste 0 -- -- 57
2018-09-04 18:00:00 25.9 24 Nordeste 39 Nordeste 0 -- -- 48
2018-09-04 17:00:00 26.9 8 Nordeste 23 Norte 0 -- -- 41
2018-09-04 16:00:00 26.8 5 Norte 17 Nordeste 0 -- -- 42
2018-09-04 15:00:00 26.4 6 Nordeste 21 Este 0 -- -- 45
2018-09-04 14:00:00 24.8 9 Este 27 Este 0 -- -- 47
2018-09-04 13:00:00 23.4 16 Nordeste 32 Este 0 -- -- 49
2018-09-04 12:00:00 20.4 20 Este 34 Este 0 -- -- 53
2018-09-04 11:00:00 18.5 17 Nordeste 32 Nordeste 0 -- -- 58
2018-09-04 10:00:00 15.9 13 Nordeste 24 Nordeste 0 -- -- 65
2018-09-04 09:00:00 12.8 8 Nordeste 20 Nordeste 0 -- -- 78
2018-09-04 08:00:00 11.4 9 Este 17 Este 0 -- -- 81
2018-09-04 07:00:00 11.9 8 Nordeste 22 Nordeste 0 -- -- 78
2018-09-04 06:00:00 12.2 11 Nordeste 21 Nordeste 0 -- -- 77
2018-09-04 05:00:00 11.8 9 Este 17 Nordeste 0 -- -- 80
2018-09-04 04:00:00 12.4 6 Nordeste 15 Nordeste 0 -- -- 77
2018-09-04 03:00:00 13.2 7 Nordeste 27 Norte 0 -- -- 76
2018-09-04 02:00:00 13.2 9 Nordeste 33 Nordeste 0.6 -- -- 75
2018-09-04 01:00:00 13.6 14 Nordeste 38 Este 1.2 -- -- 77
2018-09-04 00:00:00 15.2 19 Nordeste 39 Nordeste 1.6 -- -- 73
2018-09-03 23:00:00 16.5 20 Nordeste 47 Nordeste 0 -- -- 67
2018-09-03 22:00:00 17.5 27 Nordeste 44 Nordeste 0 -- -- 68
2018-09-03 21:00:00 19.8 20 Nordeste 41 Nordeste 0 -- -- 60
2018-09-03 20:00:00 23 22 Nordeste 42 Nordeste 0 -- -- 52
2018-09-03 19:00:00 26.7 26 Nordeste 42 Nordeste 0 -- -- 32
2018-09-03 18:00:00 28.1 18 Nordeste 34 Nordeste 0 -- -- 31
2018-09-03 17:00:00 27.9 18 Nordeste 35 Nordeste 0 -- -- 31
2018-09-03 16:00:00 28.2 16 Nordeste 33 Este 0 -- -- 31
2018-09-03 15:00:00 27.7 14 Este 27 Este 0 -- -- 32
2018-09-03 14:00:00 27.2 12 Nordeste 31 Este 0 -- -- 34
2018-09-03 13:00:00 25 13 Nordeste 23 Nordeste 0 -- -- 40
2018-09-03 12:00:00 21.5 12 Nordeste 22 Nordeste 0 -- -- 54
2018-09-03 11:00:00 17.9 10 Nordeste 18 Nordeste 0.4 -- -- 70
2018-09-03 10:00:00 20.2 11 Sudoeste 20 Nordeste 0 -- -- 55
2018-09-03 09:00:00 19.1 10 Nordeste 21 Nordeste 0 -- -- 56
2018-09-03 08:00:00 18 15 Nordeste 28 Nordeste 0 -- -- 57
2018-09-03 07:00:00 17.6 14 Nordeste 23 Nordeste 0 -- -- 58
2018-09-03 06:00:00 17.3 9 Este 19 Nordeste 0 -- -- 58
2018-09-03 05:00:00 17 6 Nordeste 11 Este 0 -- -- 61
2018-09-03 04:00:00 17.8 6 Este 15 Nordeste 0 -- -- 58
2018-09-03 03:00:00 19.7 11 Nordeste 22 Nordeste 0 -- -- 51
2018-09-03 02:00:00 20.1 12 Nordeste 30 Este 0 -- -- 54
2018-09-03 01:00:00 19.9 10 Nordeste 21 Este 0 -- -- 59
2018-09-03 00:00:00 21.2 10 Este 23 Este 0 -- -- 54
2018-09-02 23:00:00 22.1 12 Este 22 Nordeste 0 -- -- 48
2018-09-02 22:00:00 23.6 9 Nordeste 28 Nordeste 0 -- -- 43
2018-09-02 21:00:00 26.3 10 Nordeste 30 Nordeste 0 -- -- 39
2018-09-02 20:00:00 31.4 5 Oeste 19 Oeste 0 -- -- 28
2018-09-02 19:00:00 33.1 6 Oeste 21 Oeste 0 -- -- 25
2018-09-02 18:00:00 33.1 9 Oeste 21 Noroeste 0 -- -- 26
2018-09-02 17:00:00 33.5 6 Noroeste 25 Noroeste 0 -- -- 26
2018-09-02 16:00:00 33.1 3 Noroeste 19 Oeste 0 -- -- 27
2018-09-02 15:00:00 32 10 Noroeste 17 Noroeste 0 -- -- 29
2018-09-02 14:00:00 31.1 3 Sudoeste 10 Sudoeste 0 -- -- 31
2018-09-02 13:00:00 29.1 3 Sur 9 Sudoeste 0 -- -- 36
2018-09-02 12:00:00 26.3 3 Norte 6 Nordeste 0 -- -- 45
2018-09-02 11:00:00 22.5 0 Calma 6 Este 0 -- -- 56
2018-09-02 10:00:00 18.5 4 Nordeste 9 Este 0 -- -- 66
2018-09-02 09:00:00 13 2 Este 6 Nordeste 0 -- -- 88
2018-09-02 08:00:00 10.8 0 Calma 5 Este 0 -- -- 87
2018-09-02 07:00:00 11.2 4 Este 6 Este 0 -- -- 87
2018-09-02 06:00:00 12 3 Nordeste 7 Nordeste 0 -- -- 86
2018-09-02 05:00:00 13.1 2 Este 5 Norte 0 -- -- 83
2018-09-02 04:00:00 14.2 3 Noroeste 12 Este 0 -- -- 80
2018-09-02 03:00:00 15.5 2 Nordeste 10 Este 0 -- -- 78
2018-09-02 02:00:00 15.9 4 Nordeste 8 Nordeste 0 -- -- 76
2018-09-02 01:00:00 18 4 Este 17 Este 0 -- -- 71
2018-09-02 00:00:00 19 9 Este 18 Nordeste 0 -- -- 66
2018-09-01 23:00:00 19.9 9 Este 19 Este 0 -- -- 61
2018-09-01 22:00:00 22 10 Este 17 Este 0 -- -- 52
2018-09-01 21:00:00 24.5 4 Nordeste 18 Este 0 -- -- 42
2018-09-01 20:00:00 28.3 11 Este 24 Este 0 -- -- 34
2018-09-01 19:00:00 30 9 Este 22 Este 0 -- -- 29
2018-09-01 18:00:00 30.6 11 Nordeste 21 Nordeste 0 -- -- 29
2018-09-01 17:00:00 30.4 9 Nordeste 22 Nordeste 0 -- -- 30
2018-09-01 16:00:00 30.2 9 Este 22 Este 0 -- -- 31
2018-09-01 15:00:00 29 10 Nordeste 21 Este 0 -- -- 33
2018-09-01 14:00:00 27.8 10 Nordeste 22 Nordeste 0 -- -- 36
2018-09-01 13:00:00 26.8 11 Este 25 Este 0 -- -- 39
2018-09-01 12:00:00 24.2 12 Nordeste 23 Este 0 -- -- 46
2018-09-01 11:00:00 21.7 11 Nordeste 26 Este 0 -- -- 56
2018-09-01 10:00:00 17.7 11 Nordeste 19 Nordeste 0 -- -- 73
2018-09-01 09:00:00 13.7 10 Nordeste 19 Nordeste 0 -- -- 88
2018-09-01 08:00:00 11.9 2 Este 10 Nordeste 0 -- -- 89
2018-09-01 07:00:00 12 3 Sudeste 12 Nordeste 0 -- -- 91
2018-09-01 06:00:00 12.3 4 Nordeste 10 Este 0 -- -- 90
2018-09-01 05:00:00 13.3 4 Este 12 Nordeste 0 -- -- 88
2018-09-01 04:00:00 13.3 5 Nordeste 10 Este 0 -- -- 87
2018-09-01 03:00:00 14.1 5 Nordeste 13 Este 0 -- -- 85
2018-09-01 02:00:00 15 5 Nordeste 13 Este 0 -- -- 82
2018-09-01 01:00:00 16.1 5 Este 14 Este 0 -- -- 78
2018-09-01 00:00:00 17.3 4 Nordeste 21 Este 0 -- -- 75
2018-08-31 23:00:00 18.2 10 Nordeste 19 Nordeste 0 -- -- 72
2018-08-31 22:00:00 19.7 12 Nordeste 27 Nordeste 0 -- -- 65
2018-08-31 21:00:00 22.1 17 Nordeste 30 Nordeste 0 -- -- 55
2018-08-31 20:00:00 25.4 17 Nordeste 32 Nordeste 0 -- -- 47
2018-08-31 19:00:00 26.9 17 Nordeste 32 Nordeste 0 -- -- 40
2018-08-31 18:00:00 27.7 17 Nordeste 36 Nordeste 0 -- -- 38
2018-08-31 17:00:00 28.2 17 Nordeste 29 Nordeste 0 -- -- 36
2018-08-31 16:00:00 28.2 12 Nordeste 28 Norte 0 -- -- 36
2018-08-31 15:00:00 26.9 14 Nordeste 28 Nordeste 0 -- -- 38
2018-08-31 14:00:00 26 12 Nordeste 26 Nordeste 0 -- -- 38
2018-08-31 13:00:00 25 14 Este 26 Este 0 -- -- 39
2018-08-31 12:00:00 22.7 13 Nordeste 28 Nordeste 0 -- -- 42
2018-08-31 11:00:00 20.2 17 Nordeste 29 Nordeste 0 -- -- 49
2018-08-31 10:00:00 16.6 7 Nordeste 13 Nordeste 0 -- -- 64
2018-08-31 09:00:00 12.4 0 Calma 15 Este 0 -- -- 79
2018-08-31 08:00:00 10.9 6 Nordeste 13 Este 0 -- -- 82
2018-08-31 07:00:00 11.5 4 Norte 13 Este 0 -- -- 82
2018-08-31 06:00:00 12 5 Este 12 Nordeste 0 -- -- 81
2018-08-31 05:00:00 12.6 5 Nordeste 15 Nordeste 0 -- -- 82
2018-08-31 04:00:00 13.2 6 Nordeste 16 Nordeste 0 -- -- 81
2018-08-31 03:00:00 13.9 6 Nordeste 16 Nordeste 0 -- -- 79
2018-08-31 02:00:00 14.7 9 Nordeste 21 Este 0 -- -- 77
2018-08-31 01:00:00 15.9 12 Este 28 Este 0 -- -- 75
2018-08-31 00:00:00 16.3 13 Nordeste 28 Nordeste 0 -- -- 78
2018-08-30 23:00:00 17.3 17 Nordeste 34 Nordeste 0 -- -- 75
2018-08-30 22:00:00 18.4 19 Nordeste 36 Nordeste 0 -- -- 72
2018-08-30 21:00:00 20 21 Nordeste 37 Nordeste 0 -- -- 66
2018-08-30 20:00:00 24.8 18 Nordeste 32 Norte 0 -- -- 49
2018-08-30 19:00:00 27.6 15 Nordeste 25 Norte 0 -- -- 41
2018-08-30 18:00:00 29.3 3 Este 19 Noroeste 0 -- -- 32
2018-08-30 17:00:00 29.2 4 Sur 18 Noroeste 0 -- -- 31
2018-08-30 16:00:00 29.1 10 Noroeste 18 Noroeste 0 -- -- 35
2018-08-30 15:00:00 28 5 Noroeste 17 Este 0 -- -- 42
2018-08-30 14:00:00 26.3 8 Este 18 Este 0 -- -- 46
2018-08-30 13:00:00 24.1 5 Este 17 Este 0 -- -- 52
2018-08-30 12:00:00 21.3 8 Nordeste 17 Norte 0 -- -- 58
2018-08-30 11:00:00 18.9 9 Nordeste 23 Nordeste 0 -- -- 67
2018-08-30 10:00:00 16.3 12 Nordeste 24 Nordeste 0 -- -- 74
2018-08-30 09:00:00 13.2 5 Nordeste 14 Este 0 -- -- 87
2018-08-30 08:00:00 11.5 3 Nordeste 11 Este 0 -- -- 88
2018-08-30 07:00:00 11.7 4 Este 9 Nordeste 0 -- -- 88
2018-08-30 06:00:00 12.3 3 Nordeste 13 Este 0 -- -- 86
2018-08-30 05:00:00 13 4 Este 18 Nordeste 0 -- -- 83
2018-08-30 04:00:00 13.6 9 Nordeste 20 Nordeste 0 -- -- 82
2018-08-30 03:00:00 14.3 12 Nordeste 27 Nordeste 0 -- -- 81
2018-08-30 02:00:00 15.1 18 Nordeste 33 Nordeste 0 -- -- 79
2018-08-30 01:00:00 15.6 13 Nordeste 32 Nordeste 0 -- -- 80
2018-08-30 00:00:00 16.4 13 Nordeste 31 Nordeste 0 -- -- 78
2018-08-29 23:00:00 16.9 16 Nordeste 32 Nordeste 0 -- -- 78
2018-08-29 22:00:00 18.1 17 Nordeste 37 Nordeste 0 -- -- 72
2018-08-29 21:00:00 20.1 20 Nordeste 33 Nordeste 0 -- -- 65
2018-08-29 20:00:00 22.3 18 Nordeste 38 Norte 0 -- -- 60
2018-08-29 19:00:00 25.1 23 Nordeste 37 Norte 0 -- -- 52
2018-08-29 18:00:00 27.1 16 Nordeste 33 Nordeste 0 -- -- 42
2018-08-29 17:00:00 27.2 19 Nordeste 34 Nordeste 0 -- -- 43
2018-08-29 16:00:00 26.8 22 Nordeste 40 Nordeste 0 -- -- 46
2018-08-29 15:00:00 26.6 14 Nordeste 29 Nordeste 0 -- -- 44
2018-08-29 14:00:00 26.6 14 Este 30 Este 0 -- -- 45
2018-08-29 13:00:00 25.5 13 Este 30 Nordeste 0 -- -- 48
2018-08-29 12:00:00 24.1 13 Nordeste 28 Este 0 -- -- 52
2018-08-29 11:00:00 22.2 15 Nordeste 26 Nordeste 0 -- -- 57
2018-08-29 10:00:00 19 11 Nordeste 23 Este 0 -- -- 71
2018-08-29 09:00:00 14.6 4 Nordeste 10 Nordeste 0 -- -- 81
2018-08-29 08:00:00 12 3 Norte 5 Norte 0 -- -- 83
2018-08-29 07:00:00 12.8 0 Calma 6 Nordeste 0 -- -- 81
2018-08-29 06:00:00 14.4 3 Norte 14 Nordeste 0 -- -- 76
2018-08-29 05:00:00 15.4 8 Este 15 Este 0 -- -- 73
2018-08-29 04:00:00 16.3 7 Nordeste 17 Este 0 -- -- 67
2018-08-29 03:00:00 16.3 6 Este 18 Este 0 -- -- 66
2018-08-29 02:00:00 16.5 9 Este 17 Este 0 -- -- 62
2018-08-29 01:00:00 16.9 4 Nordeste 17 Este 0 -- -- 61
2018-08-29 00:00:00 17.7 7 Este 14 Nordeste 0 -- -- 60
2018-08-28 23:00:00 19.2 5 Este 19 Nordeste 0 -- -- 62
2018-08-28 22:00:00 21 14 Nordeste 20 Este 0 -- -- 60
2018-08-28 21:00:00 23.5 8 Nordeste 17 Norte 0 -- -- 46
2018-08-28 20:00:00 26.3 14 Noroeste 37 Noroeste 0 -- -- 36
2018-08-28 19:00:00 30.3 21 Oeste 40 Oeste 0 -- -- 29
2018-08-28 18:00:00 30.1 14 Oeste 30 Sudoeste 0 -- -- 30
2018-08-28 17:00:00 31.5 17 Sudoeste 38 Sudoeste 0 -- -- 29
2018-08-28 16:00:00 31.6 22 Sudoeste 39 Sudoeste 0 -- -- 22
2018-08-28 15:00:00 30.8 22 Sudoeste 40 Sudoeste 0 -- -- 28
2018-08-28 14:00:00 29.8 19 Sudoeste 38 Sudoeste 0 -- -- 31
2018-08-28 13:00:00 29.1 17 Sudoeste 32 Sudoeste 0 -- -- 33
2018-08-28 12:00:00 28.2 14 Sudoeste 24 Sudoeste 0 -- -- 35
2018-08-28 11:00:00 26.8 11 Sudoeste 18 Sudoeste 0 -- -- 39
2018-08-28 10:00:00 24.4 4 Oeste 11 Sur 0 -- -- 43
2018-08-28 09:00:00 21.4 6 Sur 19 Sudeste 0 -- -- 48
2018-08-28 08:00:00 19.8 13 Sur 21 Sudeste 0 -- -- 52
2018-08-28 07:00:00 17.4 0 Calma 7 Norte 0 -- -- 65
2018-08-28 06:00:00 17.2 0 Calma 6 Este 0 -- -- 69
2018-08-28 05:00:00 17.5 3 Norte 12 Nordeste 0 -- -- 64
2018-08-28 04:00:00 15.5 3 Sudeste 5 Este 0 -- -- 72
2018-08-28 03:00:00 18.1 3 Sudoeste 10 Sudoeste 0 -- -- 64
2018-08-28 02:00:00 20.3 2 Sudeste 8 Nordeste 0 -- -- 58
2018-08-28 01:00:00 21.8 5 Este 15 Nordeste 0 -- -- 50
2018-08-28 00:00:00 20.5 8 Nordeste 13 Este 0 -- -- 49
2018-08-27 23:00:00 20.2 4 Este 6 Este 0 -- -- 56
2018-08-27 22:00:00 23.4 5 Este 12 Nordeste 0 -- -- 42
2018-08-27 21:00:00 26.2 3 Este 5 Este 0 -- -- 39
2018-08-27 20:00:00 30.1 2 Sudoeste 14 Oeste 0 -- -- 31
2018-08-27 19:00:00 32.8 4 Noroeste 19 Oeste 0 -- -- 27
2018-08-27 18:00:00 33.2 4 Noroeste 17 Oeste 0 -- -- 27
2018-08-27 17:00:00 33.3 8 Noroeste 21 Oeste 0 -- -- 26
2018-08-27 16:00:00 32.7 10 Noroeste 21 Noroeste 0 -- -- 28
2018-08-27 15:00:00 31.8 8 Noroeste 15 Noroeste 0 -- -- 29
2018-08-27 14:00:00 30.7 7 Sudoeste 15 Oeste 0 -- -- 29
2018-08-27 13:00:00 28.8 3 Noroeste 13 Sudeste 0 -- -- 34
2018-08-27 12:00:00 26.7 4 Sur 15 Este 0 -- -- 39
2018-08-27 11:00:00 24.4 5 Este 13 Sudeste 0 -- -- 44
2018-08-27 10:00:00 19.9 5 Nordeste 10 Nordeste 0 -- -- 61
2018-08-27 09:00:00 14.7 0 Calma 5 Sudoeste 0 -- -- 81
2018-08-27 08:00:00 12.8 4 Nordeste 9 Nordeste 0 -- -- 85
2018-08-27 07:00:00 12.5 0 Calma 9 Este 0 -- -- 85
2018-08-27 06:00:00 12.8 3 Nordeste 5 Nordeste 0 -- -- 84
2018-08-27 05:00:00 13.7 3 Nordeste 6 Nordeste 0 -- -- 80
2018-08-27 04:00:00 15.5 0 Calma 14 Nordeste 0 -- -- 75
2018-08-27 03:00:00 16.6 8 Nordeste 16 Este 0 -- -- 71
2018-08-27 02:00:00 17 10 Nordeste 20 Nordeste 0 -- -- 68
2018-08-27 01:00:00 17.7 10 Nordeste 17 Este 0 -- -- 69
2018-08-27 00:00:00 18.1 9 Nordeste 17 Nordeste 0 -- -- 66
2018-08-26 23:00:00 18 9 Este 15 Este 0 -- -- 64
2018-08-26 22:00:00 19.3 3 Este 3 Sudeste 0 -- -- 53
2018-08-26 21:00:00 25.6 3 Sudoeste 14 Noroeste 0 -- -- 38
2018-08-26 20:00:00 28.4 8 Oeste 17 Noroeste 0 -- -- 31
2018-08-26 19:00:00 29.3 9 Oeste 23 Sudoeste 0 -- -- 30
2018-08-26 18:00:00 29.2 9 Oeste 22 Oeste 0 -- -- 31
2018-08-26 17:00:00 28.9 6 Oeste 28 Noroeste 0 -- -- 32
2018-08-26 16:00:00 28.1 10 Oeste 23 Oeste 0 -- -- 34
2018-08-26 15:00:00 26.9 9 Oeste 24 Sudoeste 0 -- -- 38
2018-08-26 14:00:00 25.3 5 Oeste 13 Oeste 0 -- -- 41
2018-08-26 13:00:00 23.5 4 Oeste 12 Noroeste 0 -- -- 44
2018-08-26 12:00:00 21.1 3 Oeste 8 Noroeste 0 -- -- 53
2018-08-26 11:00:00 18 3 Sudeste 8 Nordeste 0 -- -- 60
2018-08-26 10:00:00 15 4 Este 10 Nordeste 0 -- -- 72
2018-08-26 09:00:00 10.8 3 Nordeste 11 Nordeste 0 -- -- 86
2018-08-26 08:00:00 8.8 5 Este 8 Este 0 -- -- 88
2018-08-26 07:00:00 9.7 2 Noroeste 10 Este 0 -- -- 85
2018-08-26 06:00:00 10.4 6 Este 12 Nordeste 0 -- -- 83
2018-08-26 05:00:00 11.1 6 Nordeste 15 Nordeste 0 -- -- 81
2018-08-26 04:00:00 11.6 7 Nordeste 24 Este 0 -- -- 79
2018-08-26 03:00:00 12.6 10 Este 27 Este 0 -- -- 73
2018-08-26 02:00:00 12.9 10 Este 22 Este 0 -- -- 71
2018-08-26 01:00:00 13 9 Este 25 Nordeste 0 -- -- 73
2018-08-26 00:00:00 13.5 12 Nordeste 27 Nordeste 0 -- -- 70
2018-08-25 23:00:00 14.3 15 Nordeste 30 Este 0 -- -- 65
2018-08-25 22:00:00 15.5 15 Nordeste 31 Nordeste 0 -- -- 60
2018-08-25 21:00:00 17.5 17 Nordeste 29 Nordeste 0 -- -- 57
2018-08-25 20:00:00 20.7 16 Nordeste 30 Nordeste 0 -- -- 48
2018-08-25 19:00:00 22.9 16 Nordeste 29 Nordeste 0 -- -- 43
2018-08-25 18:00:00 24 15 Nordeste 28 Norte 0 -- -- 38
2018-08-25 17:00:00 23.7 17 Nordeste 30 Nordeste 0 -- -- 38
2018-08-25 16:00:00 24.2 12 Nordeste 31 Nordeste 0 -- -- 33
2018-08-25 15:00:00 23.6 12 Nordeste 31 Nordeste 0 -- -- 38
2018-08-25 14:00:00 22.4 15 Nordeste 28 Nordeste 0 -- -- 41
2018-08-25 13:00:00 21.2 12 Nordeste 31 Norte 0 -- -- 47
2018-08-25 12:00:00 19.6 15 Nordeste 29 Nordeste 0 -- -- 52
2018-08-25 11:00:00 17.8 15 Nordeste 32 Este 0 -- -- 60
2018-08-25 10:00:00 15.9 17 Este 29 Este 0 -- -- 66
2018-08-25 09:00:00 13.3 10 Este 18 Este 0 -- -- 83
2018-08-25 08:00:00 10.8 7 Este 16 Nordeste 0 -- -- 91
2018-08-25 07:00:00 11.2 9 Este 19 Este 0 -- -- 89
2018-08-25 06:00:00 11.5 8 Este 17 Este 0 -- -- 86
2018-08-25 05:00:00 12 8 Este 26 Este 0 -- -- 83
2018-08-25 04:00:00 12.1 13 Este 26 Este 0 -- -- 83
2018-08-25 03:00:00 12.5 13 Este 21 Este 0 -- -- 82
2018-08-25 02:00:00 13 9 Nordeste 21 Este 0 -- -- 81
2018-08-25 01:00:00 13.8 10 Este 37 Este 0 -- -- 77
2018-08-25 00:00:00 14.7 14 Nordeste 30 Nordeste 0 -- -- 78
2018-08-24 23:00:00 15.4 15 Nordeste 28 Nordeste 0 -- -- 77
2018-08-24 22:00:00 16.5 17 Nordeste 31 Nordeste 0 -- -- 73
2018-08-24 21:00:00 18.3 14 Nordeste 35 Nordeste 0 -- -- 66
2018-08-24 20:00:00 20.5 20 Nordeste 37 Nordeste 0 -- -- 60
2018-08-24 19:00:00 25.5 19 Nordeste 32 Nordeste 0 -- -- 43
2018-08-24 18:00:00 26.1 12 Nordeste 26 Nordeste 0 -- -- 38
2018-08-24 17:00:00 26.3 14 Nordeste 25 Nordeste 0 -- -- 38
2018-08-24 16:00:00 26.2 6 Sudeste 25 Nordeste 0 -- -- 38
2018-08-24 15:00:00 25.3 10 Nordeste 27 Nordeste 0 -- -- 43
2018-08-24 14:00:00 24.3 10 Nordeste 31 Nordeste 0 -- -- 48
2018-08-24 13:00:00 22.9 16 Nordeste 30 Nordeste 0 -- -- 54
2018-08-24 12:00:00 21.7 14 Este 27 Este 0 -- -- 58
2018-08-24 11:00:00 20.3 14 Nordeste 27 Nordeste 0 -- -- 62
2018-08-24 10:00:00 18 13 Nordeste 24 Nordeste 0 -- -- 72
2018-08-24 09:00:00 14.5 7 Nordeste 14 Este 0 -- -- 87
2018-08-24 08:00:00 11.4 6 Nordeste 13 Este 0 -- -- 90
2018-08-24 07:00:00 12.7 8 Este 14 Nordeste 0 -- -- 89
2018-08-24 06:00:00 13.5 9 Nordeste 18 Nordeste 0 -- -- 88
2018-08-24 05:00:00 13.2 5 Nordeste 14 Nordeste 0 -- -- 89
2018-08-24 04:00:00 13.4 5 Este 13 Este 0 -- -- 87
2018-08-24 03:00:00 13.9 4 Este 13 Este 0 -- -- 87
2018-08-24 02:00:00 14.9 2 Nordeste 13 Nordeste 0 -- -- 83
2018-08-24 01:00:00 16.1 7 Nordeste 18 Nordeste 0 -- -- 81
2018-08-24 00:00:00 17.2 9 Nordeste 21 Nordeste 0 -- -- 77
2018-08-23 23:00:00 18.4 7 Nordeste 27 Nordeste 0 -- -- 73
2018-08-23 22:00:00 19.8 18 Nordeste 31 Nordeste 0 -- -- 68
2018-08-23 21:00:00 23 15 Nordeste 33 Nordeste 0 -- -- 58
2018-08-23 20:00:00 25.7 18 Nordeste 34 Nordeste 0 -- -- 46
2018-08-23 19:00:00 27.6 17 Nordeste 33 Nordeste 0 -- -- 44
2018-08-23 18:00:00 28.4 16 Nordeste 29 Nordeste 0 -- -- 40
2018-08-23 17:00:00 28.7 12 Nordeste 24 Nordeste 0 -- -- 40
2018-08-23 16:00:00 28.7 10 Nordeste 26 Norte 0 -- -- 42
2018-08-23 15:00:00 28.1 10 Nordeste 21 Nordeste 0 -- -- 47
2018-08-23 14:00:00 26.9 9 Nordeste 21 Nordeste 0 -- -- 50
2018-08-23 13:00:00 25.7 9 Nordeste 18 Este 0 -- -- 54
2018-08-23 12:00:00 24 9 Nordeste 18 Nordeste 0 -- -- 60
2018-08-23 11:00:00 21.7 10 Nordeste 19 Nordeste 0 -- -- 70
2018-08-23 10:00:00 19.3 9 Nordeste 17 Este 0 -- -- 82
2018-08-23 09:00:00 16 4 Nordeste 8 Nordeste 0 -- -- 93
2018-08-23 08:00:00 14.1 0 Calma 4 Nordeste 0 -- -- 92
2018-08-23 07:00:00 14.6 2 Norte 5 Oeste 0 -- -- 89
2018-08-23 06:00:00 16 3 Nordeste 10 Este 0 -- -- 90
2018-08-23 05:00:00 16.4 5 Nordeste 13 Este 0 -- -- 88
2018-08-23 04:00:00 16.9 4 Este 10 Este 0 -- -- 87
2018-08-23 03:00:00 17.5 2 Este 13 Este 0 -- -- 84
2018-08-23 02:00:00 18.5 6 Nordeste 21 Este 0 -- -- 82
2018-08-23 01:00:00 19.8 7 Este 18 Nordeste 0 -- -- 76
2018-08-23 00:00:00 20.6 6 Nordeste 13 Este 0 -- -- 56